createdAt,value
2019-03-04T00:00:49.011Z,12.30
2019-03-04T00:03:16.112Z,12.26
2019-03-04T00:05:42.797Z,12.31
2019-03-04T00:08:09.601Z,12.31
2019-03-04T00:10:36.418Z,12.34
2019-03-04T00:13:03.234Z,12.31
2019-03-04T00:15:29.920Z,12.31
2019-03-04T00:17:56.612Z,12.31
2019-03-04T00:20:23.193Z,12.32
2019-03-04T00:22:49.977Z,12.30
2019-03-04T00:25:16.744Z,12.34
2019-03-04T00:27:43.308Z,12.33
2019-03-04T00:30:10.117Z,12.31
2019-03-04T00:32:36.846Z,12.31
2019-03-04T00:35:03.704Z,12.31
2019-03-04T00:37:30.291Z,12.25
2019-03-04T00:39:56.891Z,12.28
2019-03-04T00:42:23.485Z,12.27
2019-03-04T00:44:50.094Z,12.29
2019-03-04T00:47:16.997Z,12.25
2019-03-04T00:49:43.582Z,12.25
2019-03-04T00:52:10.168Z,12.23
2019-03-04T00:54:36.785Z,12.22
2019-03-04T00:57:03.570Z,12.21
2019-03-04T00:59:31.402Z,12.21
2019-03-04T01:01:58.255Z,12.16
2019-03-04T01:04:24.864Z,12.18
2019-03-04T01:06:51.436Z,12.18
2019-03-04T01:09:18.339Z,12.22
2019-03-04T01:11:44.966Z,12.16
2019-03-04T01:14:11.495Z,12.13
2019-03-04T01:16:38.116Z,12.14
2019-03-04T01:19:04.804Z,12.07
2019-03-04T01:21:31.488Z,12.09
2019-03-04T01:23:58.112Z,12.07
2019-03-04T01:26:24.913Z,12.04
2019-03-04T01:28:51.513Z,12.05
2019-03-04T01:31:18.311Z,12.06
2019-03-04T01:33:45.327Z,12.04
2019-03-04T01:36:12.037Z,12.08
2019-03-04T01:38:38.762Z,12.08
2019-03-04T01:41:05.350Z,12.08
2019-03-04T01:43:32.035Z,12.10
2019-03-04T01:45:58.660Z,12.11
2019-03-04T01:48:25.349Z,12.11
2019-03-04T01:50:51.944Z,12.14
2019-03-04T01:53:18.539Z,12.13
2019-03-04T01:55:45.121Z,12.15
2019-03-04T01:58:11.700Z,12.16
2019-03-04T02:00:38.541Z,12.19
2019-03-04T02:03:05.216Z,12.17
2019-03-04T02:05:31.795Z,12.19
2019-03-04T02:07:58.516Z,12.20
2019-03-04T02:10:25.120Z,12.30
2019-03-04T02:12:51.804Z,12.36
2019-03-04T02:15:18.525Z,12.44
2019-03-04T02:17:45.356Z,12.43
2019-03-04T02:20:13.479Z,12.41
2019-03-04T02:22:40.338Z,12.46
2019-03-04T02:25:08.798Z,12.48
2019-03-04T02:27:35.380Z,12.48
2019-03-04T02:30:04.502Z,12.45
2019-03-04T02:32:31.100Z,12.45
2019-03-04T02:34:57.796Z,12.41
2019-03-04T02:37:24.500Z,12.41
2019-03-04T02:39:51.310Z,12.38
2019-03-04T02:42:18.015Z,12.36
2019-03-04T02:44:44.652Z,12.33
2019-03-04T02:47:11.234Z,12.30
2019-03-04T02:49:37.824Z,12.29
2019-03-04T02:52:04.628Z,12.25
2019-03-04T02:54:31.209Z,12.29
2019-03-04T02:56:57.805Z,12.33
2019-03-04T02:59:24.453Z,12.29
2019-03-04T03:01:51.036Z,12.32
2019-03-04T03:04:17.817Z,12.31
2019-03-04T03:06:44.744Z,12.31
2019-03-04T03:09:12.124Z,12.29
2019-03-04T03:11:38.804Z,12.31
2019-03-04T03:14:05.405Z,12.28
2019-03-04T03:16:32.017Z,12.27
2019-03-04T03:18:58.693Z,12.27
2019-03-04T03:21:25.306Z,12.23
2019-03-04T03:23:51.877Z,12.24
2019-03-04T03:26:18.540Z,12.17
2019-03-04T03:28:45.134Z,12.13
2019-03-04T03:31:11.712Z,12.15
2019-03-04T03:33:38.381Z,12.12
2019-03-04T03:36:04.979Z,12.15
2019-03-04T03:38:31.541Z,12.21
2019-03-04T03:40:58.245Z,12.23
2019-03-04T03:43:25.132Z,12.18
2019-03-04T03:45:51.915Z,12.20
2019-03-04T03:48:18.483Z,12.23
2019-03-04T03:50:45.054Z,12.25
2019-03-04T03:53:11.741Z,12.27
2019-03-04T03:55:38.320Z,12.31
2019-03-04T03:58:04.946Z,12.34
2019-03-04T04:00:31.605Z,12.38
2019-03-04T04:02:58.267Z,12.40
2019-03-04T04:05:24.873Z,12.44
2019-03-04T04:07:51.554Z,12.49
2019-03-04T04:10:18.334Z,12.46
2019-03-04T04:12:45.122Z,12.48
2019-03-04T04:15:11.900Z,12.57
2019-03-04T04:17:38.687Z,12.64
2019-03-04T04:20:05.608Z,12.67
2019-03-04T04:22:32.195Z,12.79
2019-03-04T04:24:58.806Z,12.79
2019-03-04T04:27:25.400Z,12.75
2019-03-04T04:29:51.959Z,12.81
2019-03-04T04:32:18.541Z,12.79
2019-03-04T04:34:45.121Z,12.74
2019-03-04T04:37:11.692Z,12.80
2019-03-04T04:39:38.258Z,12.81
2019-03-04T04:42:04.960Z,12.80
2019-03-04T04:44:31.528Z,12.78
2019-03-04T04:46:59.802Z,12.80
2019-03-04T04:49:28.672Z,12.81
2019-03-04T04:51:55.257Z,12.79
2019-03-04T04:54:21.811Z,12.77
2019-03-04T04:56:48.659Z,12.77
2019-03-04T04:59:15.225Z,12.89
2019-03-04T05:01:41.905Z,12.97
2019-03-04T05:04:08.615Z,13.11
2019-03-04T05:06:35.188Z,13.11
2019-03-04T05:09:02.273Z,13.20
2019-03-04T05:11:29.121Z,13.15
2019-03-04T05:13:55.707Z,13.18
2019-03-04T05:16:22.916Z,13.31
2019-03-04T05:18:49.683Z,13.36
2019-03-04T05:21:16.272Z,13.38
2019-03-04T05:23:42.839Z,13.33
2019-03-04T05:26:09.652Z,13.34
2019-03-04T05:28:36.232Z,13.33
2019-03-04T05:31:02.931Z,13.31
2019-03-04T05:33:29.553Z,13.31
2019-03-04T05:35:56.128Z,13.28
2019-03-04T05:38:22.703Z,13.24
2019-03-04T05:40:49.293Z,13.19
2019-03-04T05:43:15.855Z,13.15
2019-03-04T05:45:42.466Z,13.20
2019-03-04T05:48:09.186Z,13.16
2019-03-04T05:50:35.753Z,13.12
2019-03-04T05:53:02.422Z,13.15
2019-03-04T05:55:29.221Z,13.13
2019-03-04T05:57:55.800Z,13.12
2019-03-04T06:00:23.402Z,13.07
2019-03-04T06:02:50.037Z,13.06
2019-03-04T06:05:16.595Z,13.02
2019-03-04T06:07:58.068Z,12.94
2019-03-04T06:10:24.753Z,12.81
2019-03-04T06:12:51.427Z,12.50
2019-03-04T06:15:19.115Z,12.30
2019-03-04T06:17:45.813Z,12.10
2019-03-04T06:20:13.535Z,11.83
2019-03-04T06:22:40.327Z,11.75
2019-03-04T06:25:09.861Z,8.49
2019-03-04T06:27:36.439Z,6.61
2019-03-04T06:30:04.053Z,6.83
2019-03-04T06:32:30.759Z,6.97
2019-03-04T06:34:57.305Z,7.13
2019-03-04T06:37:23.883Z,7.19
2019-03-04T06:39:50.734Z,7.27
2019-03-04T06:42:17.326Z,7.32
2019-03-04T06:44:43.932Z,7.39
2019-03-04T06:47:10.656Z,7.27
2019-03-04T06:49:37.269Z,7.22
2019-03-04T06:52:04.102Z,7.24
2019-03-04T06:55:07.220Z,7.22
2019-03-04T06:57:37.671Z,7.10
2019-03-04T07:00:40.982Z,7.05
2019-03-04T07:03:10.976Z,6.90
2019-03-04T07:05:50.958Z,6.95
2019-03-04T07:09:09.727Z,6.96
2019-03-04T07:11:40.491Z,7.00
2019-03-04T07:14:07.209Z,7.10
2019-03-04T07:16:33.823Z,7.30
2019-03-04T07:19:06.463Z,7.23
2019-03-04T07:21:33.163Z,7.31
2019-03-04T07:24:00.154Z,7.47
2019-03-04T07:26:27.102Z,7.65
2019-03-04T07:28:53.707Z,7.81
2019-03-04T07:31:20.552Z,7.80
2019-03-04T07:33:47.171Z,7.86
2019-03-04T07:36:13.895Z,7.97
2019-03-04T07:38:43.229Z,8.04
2019-03-04T07:41:09.871Z,8.15
2019-03-04T07:43:36.476Z,8.27
2019-03-04T07:46:03.485Z,8.33
2019-03-04T07:48:30.123Z,8.35
2019-03-04T07:51:06.856Z,8.42
2019-03-04T07:53:33.815Z,8.56
2019-03-04T07:56:00.544Z,8.68
2019-03-04T07:58:27.161Z,8.74
2019-03-04T08:00:54.015Z,8.80
2019-03-04T08:03:20.637Z,8.89
2019-03-04T08:05:47.374Z,8.97
2019-03-04T08:08:14.614Z,9.01
2019-03-04T08:11:11.849Z,9.08
2019-03-04T08:13:51.756Z,9.23
2019-03-04T08:16:18.615Z,9.23
2019-03-04T08:18:45.421Z,9.29
2019-03-04T08:21:13.566Z,9.27
2019-03-04T08:23:40.373Z,9.35
2019-03-04T08:26:07.915Z,9.31
2019-03-04T08:28:34.559Z,9.24
2019-03-04T08:31:01.356Z,9.30
2019-03-04T08:33:28.009Z,9.32
2019-03-04T08:35:56.611Z,9.34
2019-03-04T08:38:23.336Z,9.36
2019-03-04T08:40:49.976Z,9.44
2019-03-04T08:43:16.789Z,9.67
2019-03-04T08:45:43.501Z,9.66
2019-03-04T08:48:10.228Z,9.94
2019-03-04T08:50:37.039Z,9.84
2019-03-04T08:53:03.635Z,9.95
2019-03-04T08:55:30.270Z,10.08
2019-03-04T08:57:56.973Z,10.87
2019-03-04T09:00:25.475Z,11.23
2019-03-04T09:02:52.280Z,10.93
2019-03-04T09:05:19.082Z,11.11
2019-03-04T09:07:46.165Z,11.07
2019-03-04T09:10:18.181Z,10.78
2019-03-04T09:12:44.981Z,10.56
2019-03-04T09:15:11.942Z,11.14
2019-03-04T09:17:38.833Z,11.45
2019-03-04T09:20:06.384Z,10.98
2019-03-04T09:22:33.135Z,10.73
2019-03-04T09:24:59.776Z,10.65
2019-03-04T09:27:26.369Z,10.44
2019-03-04T09:29:52.992Z,10.42
2019-03-04T09:32:19.600Z,10.34
2019-03-04T09:34:46.223Z,10.24
2019-03-04T09:37:13.380Z,10.26
2019-03-04T09:39:40.170Z,10.22
2019-03-04T09:42:26.540Z,10.23
2019-03-04T09:44:53.220Z,10.10
2019-03-04T09:47:20.044Z,9.81
2019-03-04T09:49:46.735Z,9.46
2019-03-04T09:52:13.466Z,9.24
2019-03-04T09:54:40.079Z,9.10
2019-03-04T09:57:06.723Z,8.98
2019-03-04T09:59:33.459Z,8.77
2019-03-04T10:02:05.744Z,8.33
2019-03-04T10:04:42.972Z,8.14
2019-03-04T10:07:47.570Z,8.08
2019-03-04T10:10:55.222Z,7.89
2019-03-04T10:13:48.967Z,7.81
2019-03-04T10:16:44.018Z,7.75
2019-03-04T10:19:27.554Z,7.75
2019-03-04T10:22:15.906Z,7.74
2019-03-04T10:24:48.297Z,7.86
2019-03-04T10:27:45.683Z,7.88
2019-03-04T10:31:02.352Z,7.94
2019-03-04T10:34:12.882Z,8.10
2019-03-04T10:37:08.710Z,8.21
2019-03-04T10:40:03.258Z,8.32
2019-03-04T10:43:13.458Z,8.43
2019-03-04T10:46:12.859Z,8.62
2019-03-04T10:48:39.707Z,8.55
2019-03-04T10:51:06.329Z,8.46
2019-03-04T10:53:32.924Z,8.47
2019-03-04T10:55:59.666Z,8.61
2019-03-04T10:58:26.256Z,8.76
2019-03-04T11:00:52.984Z,8.92
2019-03-04T11:03:19.872Z,9.09
2019-03-04T11:05:46.686Z,9.09
2019-03-04T11:08:13.299Z,8.99
2019-03-04T11:10:40.040Z,8.75
2019-03-04T11:13:06.747Z,8.58
2019-03-04T11:15:33.461Z,8.27
2019-03-04T11:18:00.299Z,8.11
2019-03-04T11:20:27.115Z,7.82
2019-03-04T11:22:53.736Z,6.75
2019-03-04T11:25:20.557Z,6.06
2019-03-04T11:27:47.461Z,5.89
2019-03-04T11:30:14.508Z,5.89
2019-03-04T11:32:41.341Z,5.92
2019-03-04T11:35:09.328Z,5.97
2019-03-04T11:37:36.021Z,5.96
2019-03-04T11:40:17.488Z,6.07
2019-03-04T11:42:44.181Z,5.96
2019-03-04T11:45:13.503Z,5.96
2019-03-04T11:47:40.095Z,6.01
2019-03-04T11:50:09.402Z,6.06
2019-03-04T11:52:36.115Z,6.12
2019-03-04T11:55:03.069Z,6.17
2019-03-04T11:57:29.672Z,6.25
2019-03-04T11:59:56.625Z,6.37
2019-03-04T12:05:49.703Z,7.43
2019-03-04T12:08:16.445Z,7.41
2019-03-04T12:10:43.185Z,8.38
2019-03-04T12:13:10.185Z,8.76
2019-03-04T12:15:37.039Z,8.55
2019-03-04T12:18:03.888Z,7.84
2019-03-04T12:20:30.526Z,7.87
2019-03-04T12:22:57.252Z,7.93
2019-03-04T12:25:23.989Z,7.53
2019-03-04T12:27:50.692Z,7.30
2019-03-04T12:30:17.790Z,7.16
2019-03-04T12:32:44.392Z,7.20
2019-03-04T12:35:11.960Z,7.13
2019-03-04T12:37:38.799Z,7.15
2019-03-04T12:40:06.451Z,7.09
2019-03-04T12:42:33.060Z,7.30
2019-03-04T12:44:59.691Z,7.21
2019-03-04T12:47:26.406Z,7.33
2019-03-04T12:49:53.037Z,7.29
2019-03-04T12:52:19.784Z,7.45
2019-03-04T12:54:46.495Z,7.62
2019-03-04T12:57:13.235Z,8.45
2019-03-04T12:59:39.943Z,8.49
2019-03-04T13:02:06.846Z,8.48
2019-03-04T13:04:33.526Z,8.29
2019-03-04T13:07:00.365Z,7.79
2019-03-04T13:09:27.093Z,7.81
2019-03-04T13:11:54.697Z,7.82
2019-03-04T13:14:21.372Z,8.08
2019-03-04T13:16:48.080Z,8.00
2019-03-04T13:19:14.679Z,7.93
2019-03-04T13:21:41.413Z,7.79
2019-03-04T13:24:08.230Z,7.82
2019-03-04T13:26:34.936Z,7.78
2019-03-04T13:29:01.536Z,7.78
2019-03-04T13:31:28.268Z,7.85
2019-03-04T13:33:54.874Z,8.02
2019-03-04T13:36:21.587Z,8.00
2019-03-04T13:38:48.402Z,7.97
2019-03-04T13:41:15.000Z,7.90
2019-03-04T13:43:41.818Z,7.93
2019-03-04T13:46:08.673Z,7.91
2019-03-04T13:48:35.386Z,7.83
2019-03-04T13:51:02.401Z,7.74
2019-03-04T13:53:29.011Z,7.82
2019-03-04T13:55:55.672Z,7.98
2019-03-04T13:58:22.312Z,8.13
2019-03-04T14:00:49.011Z,9.12
2019-03-04T14:03:15.630Z,9.45
2019-03-04T14:05:42.671Z,10.10
2019-03-04T14:08:09.522Z,9.55
2019-03-04T14:10:36.355Z,9.30
2019-03-04T14:13:03.309Z,8.98
2019-03-04T14:15:31.866Z,9.08
2019-03-04T14:17:58.836Z,9.28
2019-03-04T14:20:25.630Z,8.88
2019-03-04T14:22:57.671Z,8.79
2019-03-04T14:25:20.928Z,8.97
2019-03-04T14:27:47.555Z,9.18
2019-03-04T14:30:15.013Z,9.35
2019-03-04T14:32:41.984Z,10.64
2019-03-04T14:35:08.819Z,10.17
2019-03-04T14:37:35.622Z,9.29
2019-03-04T14:40:02.905Z,9.36
2019-03-04T14:42:29.673Z,10.11
2019-03-04T14:44:56.420Z,9.78
2019-03-04T14:47:23.164Z,9.80
2019-03-04T14:49:49.840Z,9.58
2019-03-04T14:52:16.534Z,9.30
2019-03-04T14:54:43.304Z,9.18
2019-03-04T14:57:10.120Z,9.44
2019-03-04T14:59:36.713Z,9.49
2019-03-04T15:02:03.935Z,9.19
2019-03-04T15:04:30.773Z,8.89
2019-03-04T15:06:57.547Z,8.68
2019-03-04T15:09:24.688Z,8.78
2019-03-04T15:11:51.449Z,8.72
2019-03-04T15:14:18.055Z,8.59
2019-03-04T15:16:44.688Z,8.62
2019-03-04T15:19:11.369Z,8.57
2019-03-04T15:21:38.354Z,8.68
2019-03-04T15:24:05.179Z,8.58
2019-03-04T15:26:40.969Z,8.58
2019-03-04T15:29:00.642Z,8.50
2019-03-04T15:31:27.516Z,8.56
2019-03-04T15:33:54.234Z,8.65
2019-03-04T15:36:20.970Z,8.60
2019-03-04T15:38:47.580Z,8.51
2019-03-04T15:41:14.289Z,8.48
2019-03-04T15:43:41.093Z,8.51
2019-03-04T15:46:07.751Z,8.59
2019-03-04T15:48:34.548Z,8.39
2019-03-04T15:51:01.263Z,8.34
2019-03-04T15:53:28.033Z,8.35
2019-03-04T15:55:54.893Z,8.37
2019-03-04T15:58:21.610Z,8.31
2019-03-04T16:00:48.341Z,8.34
2019-03-04T16:03:15.214Z,8.34
2019-03-04T16:05:41.954Z,8.25
2019-03-04T16:08:08.855Z,8.28
2019-03-04T16:10:36.152Z,8.24
2019-03-04T16:13:03.140Z,8.17
2019-03-04T16:15:30.228Z,8.17
2019-03-04T16:17:57.063Z,8.15
2019-03-04T16:20:24.000Z,8.05
2019-03-04T16:22:50.901Z,8.02
2019-03-04T16:25:17.754Z,7.97
2019-03-04T16:27:44.644Z,8.03
2019-03-04T16:30:16.446Z,7.94
2019-03-04T16:32:43.313Z,7.99
2019-03-04T16:35:10.152Z,7.97
2019-03-04T16:37:37.105Z,7.92
2019-03-04T16:40:04.906Z,7.85
2019-03-04T16:42:31.595Z,7.88
2019-03-04T16:44:58.416Z,7.87
2019-03-04T16:47:25.280Z,7.89
2019-03-04T16:49:51.960Z,7.94
2019-03-04T16:52:20.401Z,7.85
2019-03-04T16:54:47.119Z,7.84
2019-03-04T16:57:14.024Z,7.81
2019-03-04T16:59:40.757Z,7.78
2019-03-04T17:02:07.483Z,7.81
2019-03-04T17:04:34.227Z,7.75
2019-03-04T17:07:00.939Z,7.77
2019-03-04T17:09:27.800Z,7.74
2019-03-04T17:11:54.655Z,7.78
2019-03-04T17:14:21.602Z,7.76
2019-03-04T17:16:49.095Z,7.72
2019-03-04T17:19:16.020Z,7.66
2019-03-04T17:21:42.763Z,7.73
2019-03-04T17:24:09.675Z,7.66
2019-03-04T17:26:36.531Z,7.64
2019-03-04T17:29:03.665Z,7.56
2019-03-04T17:31:30.403Z,7.58
2019-03-04T17:33:57.159Z,7.53
2019-03-04T17:36:24.338Z,7.53
2019-03-04T17:38:50.984Z,7.54
2019-03-04T17:41:17.590Z,7.49
2019-03-04T17:43:44.335Z,7.50
2019-03-04T17:46:11.360Z,7.46
2019-03-04T17:48:38.362Z,7.47
2019-03-04T17:51:06.311Z,7.45
2019-03-04T17:53:33.474Z,7.47
2019-03-04T17:56:00.464Z,7.47
2019-03-04T17:58:27.404Z,7.38
2019-03-04T18:00:54.860Z,7.38
2019-03-04T18:03:21.728Z,7.34
2019-03-04T18:05:48.773Z,7.24
2019-03-04T18:08:15.644Z,7.24
2019-03-04T18:10:42.898Z,7.14
2019-03-04T18:13:10.084Z,7.11
2019-03-04T18:15:37.244Z,7.15
2019-03-04T18:18:04.073Z,7.10
2019-03-04T18:20:34.386Z,7.10
2019-03-04T18:22:59.456Z,7.06
2019-03-04T18:25:36.144Z,7.03
2019-03-04T18:28:06.566Z,7.04
2019-03-04T18:30:56.393Z,7.06
2019-03-04T18:33:50.811Z,7.12
2019-03-04T18:36:45.975Z,7.12
2019-03-04T18:39:37.769Z,7.04
2019-03-04T18:42:28.929Z,7.07
2019-03-04T18:45:33.493Z,7.14
2019-03-04T18:48:54.170Z,7.07
2019-03-04T18:51:21.138Z,7.08
2019-03-04T18:53:48.344Z,7.13
2019-03-04T18:56:22.031Z,7.01
2019-03-04T18:58:44.174Z,7.01
2019-03-04T19:01:12.693Z,7.01
2019-03-04T19:03:40.805Z,6.96
2019-03-04T19:06:07.833Z,7.14
2019-03-04T19:08:34.432Z,7.13
2019-03-04T19:11:01.323Z,7.07
2019-03-04T19:13:28.145Z,7.00
2019-03-04T19:15:54.775Z,7.03
2019-03-04T19:18:21.517Z,6.99
2019-03-04T19:20:48.213Z,7.05
2019-03-04T19:23:15.021Z,7.02
2019-03-04T19:25:42.159Z,7.11
2019-03-04T19:28:09.241Z,7.06
2019-03-04T19:30:36.335Z,7.06
2019-03-04T19:33:03.200Z,7.04
2019-03-04T19:35:29.978Z,7.11
2019-03-04T19:37:56.820Z,6.95
2019-03-04T19:40:23.546Z,7.01
2019-03-04T19:42:50.247Z,6.95
2019-03-04T19:45:17.002Z,6.97
2019-03-04T19:47:43.638Z,6.87
2019-03-04T19:50:10.682Z,6.88
2019-03-04T19:52:37.466Z,6.86
2019-03-04T19:55:05.775Z,6.86
2019-03-04T19:57:32.375Z,6.81
2019-03-04T19:59:59.258Z,6.81
2019-03-04T20:02:26.061Z,6.86
2019-03-04T20:04:52.893Z,6.77
2019-03-04T20:07:19.848Z,6.76
2019-03-04T20:09:46.563Z,6.74
2019-03-04T20:12:13.269Z,6.74
2019-03-04T20:14:40.112Z,6.71
2019-03-04T20:17:07.002Z,6.74
2019-03-04T20:19:33.819Z,6.71
2019-03-04T20:22:00.448Z,6.76
2019-03-04T20:24:27.232Z,6.65
2019-03-04T20:26:54.030Z,6.74
2019-03-04T20:29:20.739Z,6.77
2019-03-04T20:31:47.452Z,6.79
2019-03-04T20:34:14.207Z,6.80
2019-03-04T20:36:41.224Z,6.88
2019-03-04T20:39:10.226Z,6.93
2019-03-04T20:41:36.983Z,6.93
2019-03-04T20:44:04.308Z,6.97
2019-03-04T20:46:30.956Z,6.95
2019-03-04T20:48:57.645Z,6.99
2019-03-04T20:51:24.382Z,7.08
2019-03-04T20:53:51.083Z,7.12
2019-03-04T20:56:17.699Z,7.11
2019-03-04T20:58:44.313Z,7.13
2019-03-04T21:01:11.744Z,7.06
2019-03-04T21:03:38.905Z,7.21
2019-03-04T21:06:05.759Z,7.18
2019-03-04T21:08:32.566Z,7.24
2019-03-04T21:10:59.375Z,7.22
2019-03-04T21:13:35.276Z,7.23
2019-03-04T21:15:54.900Z,7.13
2019-03-04T21:18:22.126Z,7.21
2019-03-04T21:20:49.275Z,7.22
2019-03-04T21:23:16.069Z,7.18
2019-03-04T21:25:54.984Z,7.20
2019-03-04T21:28:32.255Z,7.16
2019-03-04T21:31:35.183Z,7.09
2019-03-04T21:34:55.371Z,6.90
2019-03-04T21:37:28.850Z,6.69
2019-03-04T21:39:57.947Z,6.42
2019-03-04T21:42:45.184Z,5.91
2019-03-04T21:45:58.999Z,5.73
2019-03-04T21:48:31.993Z,5.60
2019-03-04T21:51:14.524Z,5.48
2019-03-04T21:53:43.820Z,5.48
2019-03-04T21:56:36.489Z,5.32
2019-03-04T21:59:04.422Z,5.35
2019-03-04T22:01:36.185Z,5.24
2019-03-04T22:04:03.730Z,5.27
2019-03-04T22:06:30.551Z,5.35
2019-03-04T22:08:57.290Z,5.28
2019-03-04T22:11:24.003Z,5.26
2019-03-04T22:13:50.600Z,5.21
2019-03-04T22:16:17.520Z,5.27
2019-03-04T22:18:47.298Z,5.34
2019-03-04T22:21:16.695Z,5.35
2019-03-04T22:23:42.837Z,5.42
2019-03-04T22:26:09.563Z,5.48
2019-03-04T22:28:36.297Z,5.51
2019-03-04T22:31:03.070Z,5.49
2019-03-04T22:33:29.790Z,5.54
2019-03-04T22:35:56.482Z,5.59
2019-03-04T22:38:23.312Z,5.67
2019-03-04T22:40:50.025Z,5.65
2019-03-04T22:43:16.986Z,5.71
2019-03-04T22:45:43.918Z,5.62
2019-03-04T22:48:10.954Z,5.68
2019-03-04T22:50:37.704Z,5.66
2019-03-04T22:53:04.436Z,5.63
2019-03-04T22:55:33.676Z,5.73
2019-03-04T22:58:00.408Z,5.80
2019-03-04T23:01:49.304Z,5.85
2019-03-04T23:04:30.811Z,5.94
2019-03-04T23:07:03.779Z,5.95
2019-03-04T23:09:33.217Z,6.02
2019-03-04T23:12:08.601Z,6.04
2019-03-04T23:14:35.288Z,6.14
2019-03-04T23:17:02.040Z,6.13
2019-03-04T23:19:28.623Z,6.16
2019-03-04T23:21:55.391Z,6.19
2019-03-04T23:24:22.139Z,6.25
2019-03-04T23:26:48.746Z,6.27
2019-03-04T23:29:15.337Z,6.24
2019-03-04T23:31:42.106Z,6.27
2019-03-04T23:34:08.816Z,6.28
2019-03-04T23:36:35.611Z,6.28
2019-03-04T23:39:04.316Z,6.31
2019-03-04T23:41:31.011Z,6.30
2019-03-04T23:43:57.589Z,6.29
2019-03-04T23:46:24.316Z,6.39
2019-03-04T23:48:50.923Z,6.39
2019-03-04T23:51:17.626Z,6.38
2019-03-04T23:53:44.344Z,6.34
2019-03-04T23:56:11.239Z,6.43
2019-03-04T23:58:37.850Z,6.47
